createdAt,value
2023-03-26T00:02:10.365Z,9.29
2023-03-26T00:05:14.594Z,9.26
2023-03-26T00:08:17.196Z,9.13
2023-03-26T00:11:22.028Z,9.14
2023-03-26T00:14:24.252Z,9.18
2023-03-26T00:17:26.789Z,9.11
2023-03-26T00:20:32.731Z,9.10
2023-03-26T00:23:35.690Z,8.94
2023-03-26T00:26:38.391Z,8.91
2023-03-26T00:29:40.836Z,8.86
2023-03-26T00:32:44.516Z,8.97
2023-03-26T00:35:58.920Z,8.91
2023-03-26T00:39:05.113Z,8.88
2023-03-26T00:42:08.247Z,8.83
2023-03-26T00:45:11.222Z,8.82
2023-03-26T00:48:14.959Z,8.87
2023-03-26T00:51:18.944Z,8.81
2023-03-26T00:54:21.346Z,8.90
2023-03-26T00:57:34.998Z,8.83
2023-03-26T01:01:09.931Z,8.72
2023-03-26T01:04:28.136Z,8.81
2023-03-26T01:07:31.333Z,8.84
2023-03-26T01:10:38.673Z,8.86
2023-03-26T01:13:47.016Z,8.81
2023-03-26T01:16:58.904Z,8.85
2023-03-26T01:20:19.261Z,8.85
2023-03-26T01:23:24.479Z,9.00
2023-03-26T01:26:48.838Z,8.86
2023-03-26T01:30:11.246Z,8.93
2023-03-26T01:33:46.762Z,8.83
2023-03-26T01:37:13.168Z,9.00
2023-03-26T01:40:26.450Z,8.97
2023-03-26T01:43:32.226Z,9.01
2023-03-26T01:46:38.129Z,9.08
2023-03-26T01:49:41.634Z,9.02
2023-03-26T01:52:44.177Z,9.09
2023-03-26T01:56:15.350Z,9.07
2023-03-26T01:59:23.088Z,8.97
2023-03-26T02:02:38.861Z,8.94
2023-03-26T02:05:52.719Z,8.85
2023-03-26T02:09:03.641Z,8.84
2023-03-26T02:12:08.190Z,8.99
2023-03-26T02:15:12.063Z,8.84
2023-03-26T02:18:14.192Z,8.80
2023-03-26T02:21:22.654Z,8.70
2023-03-26T02:24:25.940Z,8.61
2023-03-26T02:27:28.931Z,8.68
2023-03-26T02:30:33.639Z,8.73
2023-03-26T02:33:37.109Z,8.60
2023-03-26T02:36:42.858Z,8.66
2023-03-26T02:39:45.915Z,8.63
2023-03-26T02:42:49.638Z,8.67
2023-03-26T02:45:52.718Z,8.58
2023-03-26T02:48:59.398Z,8.44
2023-03-26T02:52:06.288Z,8.37
2023-03-26T02:55:08.962Z,8.33
2023-03-26T02:58:12.272Z,8.31
2023-03-26T03:01:18.319Z,8.27
2023-03-26T03:04:21.846Z,8.20
2023-03-26T03:07:25.173Z,8.10
2023-03-26T03:10:28.512Z,8.08
2023-03-26T03:13:31.950Z,8.12
2023-03-26T03:16:34.464Z,7.99
2023-03-26T03:19:38.630Z,7.94
2023-03-26T03:22:41.695Z,7.92
2023-03-26T03:25:44.082Z,7.90
2023-03-26T03:28:46.739Z,7.80
2023-03-26T03:31:49.371Z,7.79
2023-03-26T03:34:52.332Z,7.85
2023-03-26T03:37:54.524Z,7.91
2023-03-26T03:40:57.300Z,7.88
2023-03-26T03:44:01.579Z,7.80
2023-03-26T03:47:04.265Z,7.75
2023-03-26T03:50:07.135Z,7.80
2023-03-26T03:53:10.376Z,7.85
2023-03-26T03:56:14.563Z,7.82
2023-03-26T03:59:19.680Z,7.75
2023-03-26T04:02:34.519Z,7.71
2023-03-26T04:05:37.475Z,7.75
2023-03-26T04:08:39.610Z,7.68
2023-03-26T04:11:42.362Z,7.58
2023-03-26T04:14:44.671Z,7.59
2023-03-26T04:17:47.358Z,7.60
2023-03-26T04:20:50.721Z,7.70
2023-03-26T04:23:54.657Z,7.74
2023-03-26T04:26:58.297Z,7.74
2023-03-26T04:30:01.713Z,7.71
2023-03-26T04:33:06.317Z,7.76
2023-03-26T04:36:10.221Z,7.78
2023-03-26T04:39:13.391Z,7.78
2023-03-26T04:42:19.963Z,7.78
2023-03-26T04:45:23.188Z,7.62
2023-03-26T04:48:28.024Z,7.56
2023-03-26T04:51:38.342Z,7.48
2023-03-26T04:54:45.412Z,7.49
2023-03-26T04:57:52.929Z,7.49
2023-03-26T05:00:57.274Z,7.43
2023-03-26T05:03:59.868Z,7.47
2023-03-26T05:07:03.375Z,7.39
2023-03-26T05:10:06.703Z,7.44
2023-03-26T05:13:09.561Z,7.44
2023-03-26T05:16:12.055Z,7.42
2023-03-26T05:19:15.017Z,7.50
2023-03-26T05:22:17.392Z,7.54
2023-03-26T05:25:23.284Z,7.60
2023-03-26T05:28:26.645Z,7.64
2023-03-26T05:31:32.364Z,7.62
2023-03-26T05:34:34.642Z,7.55
2023-03-26T05:37:38.868Z,7.57
2023-03-26T05:40:41.115Z,7.55
2023-03-26T05:43:44.893Z,7.63
2023-03-26T05:46:47.312Z,7.57
2023-03-26T05:49:53.304Z,7.65
2023-03-26T05:52:55.688Z,7.56
2023-03-26T05:55:59.171Z,7.60
2023-03-26T05:59:06.719Z,7.64
2023-03-26T06:02:12.454Z,7.73
2023-03-26T06:05:15.797Z,7.76
2023-03-26T06:08:20.579Z,7.57
2023-03-26T06:11:23.253Z,7.62
2023-03-26T06:14:25.453Z,7.67
2023-03-26T06:17:29.903Z,7.74
2023-03-26T06:20:35.587Z,7.75
2023-03-26T06:23:38.459Z,7.73
2023-03-26T06:26:40.708Z,7.81
2023-03-26T06:29:44.495Z,7.82
2023-03-26T06:32:47.001Z,7.88
2023-03-26T06:35:50.281Z,7.98
2023-03-26T06:38:52.744Z,8.10
2023-03-26T06:41:55.435Z,8.29
2023-03-26T06:44:57.823Z,8.47
2023-03-26T06:48:02.790Z,8.66
2023-03-26T06:51:06.102Z,8.84
2023-03-26T06:54:11.124Z,9.00
2023-03-26T06:57:13.864Z,9.25
2023-03-26T07:00:17.842Z,9.41
2023-03-26T07:03:23.363Z,9.63
2023-03-26T07:06:38.423Z,9.97
2023-03-26T07:10:04.898Z,10.18
2023-03-26T07:13:10.427Z,10.45
2023-03-26T07:16:14.285Z,10.46
2023-03-26T07:19:17.772Z,10.44
2023-03-26T07:22:22.537Z,10.44
2023-03-26T07:25:29.078Z,10.57
2023-03-26T07:29:04.738Z,10.52
2023-03-26T07:32:18.900Z,10.51
2023-03-26T07:35:41.704Z,10.49
2023-03-26T07:38:53.605Z,10.50
2023-03-26T07:42:21.149Z,10.54
2023-03-26T07:45:39.459Z,10.71
2023-03-26T07:48:44.537Z,10.97
2023-03-26T07:51:48.369Z,11.24
2023-03-26T07:54:51.382Z,11.32
2023-03-26T07:58:23.989Z,11.52
2023-03-26T08:01:35.688Z,11.58
2023-03-26T08:04:50.505Z,11.60
2023-03-26T08:08:11.469Z,11.64
2023-03-26T08:11:41.944Z,11.70
2023-03-26T08:15:05.225Z,11.72
2023-03-26T08:18:49.159Z,11.80
2023-03-26T08:21:58.464Z,11.85
2023-03-26T08:25:25.527Z,12.02
2023-03-26T08:28:44.591Z,12.18
2023-03-26T08:31:49.228Z,12.31
2023-03-26T08:34:52.716Z,12.39
2023-03-26T08:37:55.313Z,12.52
2023-03-26T08:41:15.037Z,12.53
2023-03-26T08:44:55.770Z,12.48
2023-03-26T08:48:19.553Z,12.48
2023-03-26T08:51:49.452Z,12.51
2023-03-26T08:55:12.618Z,12.67
2023-03-26T08:58:24.715Z,13.81
2023-03-26T09:01:54.117Z,14.50
2023-03-26T09:05:21.440Z,14.81
2023-03-26T09:08:57.348Z,14.81
2023-03-26T09:12:37.565Z,14.82
2023-03-26T09:16:07.846Z,14.44
2023-03-26T09:19:35.576Z,14.42
2023-03-26T09:22:58.910Z,15.20
2023-03-26T09:26:32.660Z,15.73
2023-03-26T09:29:59.640Z,16.17
2023-03-26T09:33:17.070Z,16.14
2023-03-26T09:36:29.618Z,16.12
2023-03-26T09:40:05.082Z,15.81
2023-03-26T09:43:40.243Z,15.88
2023-03-26T09:47:34.829Z,15.80
2023-03-26T09:51:06.625Z,16.15
2023-03-26T09:54:33.969Z,16.64
2023-03-26T09:58:25.682Z,16.58
2023-03-26T10:01:54.254Z,16.57
2023-03-26T10:05:04.880Z,16.62
2023-03-26T10:08:30.883Z,16.59
2023-03-26T10:11:52.610Z,16.05
2023-03-26T10:15:04.328Z,15.63
2023-03-26T10:18:32.528Z,15.40
2023-03-26T10:22:13.625Z,15.08
2023-03-26T10:25:29.216Z,14.76
2023-03-26T10:28:53.057Z,14.03
2023-03-26T10:32:07.073Z,13.12
2023-03-26T10:35:31.448Z,12.59
2023-03-26T10:39:02.039Z,12.09
2023-03-26T10:42:13.307Z,11.92
2023-03-26T10:45:28.769Z,12.13
2023-03-26T10:48:45.286Z,12.00
2023-03-26T10:51:55.830Z,12.02
2023-03-26T10:55:09.600Z,12.51
2023-03-26T10:58:48.553Z,12.53
2023-03-26T11:02:30.435Z,12.24
2023-03-26T11:05:48.020Z,12.24
2023-03-26T11:09:03.650Z,12.12
2023-03-26T11:12:26.570Z,11.95
2023-03-26T11:15:40.469Z,11.90
2023-03-26T11:19:01.625Z,11.84
2023-03-26T11:22:16.984Z,11.80
2023-03-26T11:25:31.304Z,11.97
2023-03-26T11:29:03.645Z,12.20
2023-03-26T11:32:21.115Z,12.32
2023-03-26T11:35:40.383Z,12.31
2023-03-26T11:38:47.869Z,12.25
2023-03-26T11:41:56.067Z,12.39
2023-03-26T11:45:20.836Z,12.64
2023-03-26T11:48:28.711Z,13.05
2023-03-26T11:51:36.677Z,13.35
2023-03-26T11:54:38.905Z,13.69
2023-03-26T11:57:50.077Z,13.96
2023-03-26T12:00:54.085Z,14.17
2023-03-26T12:03:58.876Z,14.26
2023-03-26T12:07:21.133Z,14.21
2023-03-26T12:10:31.489Z,14.06
2023-03-26T12:13:43.537Z,14.13
2023-03-26T12:17:01.182Z,14.34
2023-03-26T12:20:26.240Z,14.47
2023-03-26T12:23:57.827Z,14.39
2023-03-26T12:27:28.482Z,14.80
2023-03-26T12:30:31.175Z,14.95
2023-03-26T12:33:35.068Z,15.16
2023-03-26T12:36:39.038Z,15.31
2023-03-26T12:40:08.931Z,15.63
2023-03-26T12:44:56.641Z,15.74
2023-03-26T12:47:57.560Z,16.18
2023-03-26T12:51:13.678Z,16.27
2023-03-26T12:54:33.189Z,15.87
2023-03-26T12:57:43.752Z,15.79
2023-03-26T13:00:58.803Z,15.61
2023-03-26T13:04:04.198Z,15.57
2023-03-26T13:07:32.682Z,15.60
2023-03-26T13:11:26.100Z,15.61
2023-03-26T13:14:43.805Z,15.66
2023-03-26T13:18:06.202Z,15.82
2023-03-26T13:21:16.565Z,16.13
2023-03-26T13:24:37.519Z,16.21
2023-03-26T13:28:03.957Z,16.12
2023-03-26T13:31:16.746Z,16.20
2023-03-26T13:34:36.728Z,16.56
2023-03-26T13:38:30.256Z,16.60
2023-03-26T13:42:10.550Z,16.42
2023-03-26T13:45:36.516Z,16.32
2023-03-26T13:48:49.800Z,16.23
2023-03-26T13:52:09.259Z,16.18
2023-03-26T13:55:30.667Z,16.20
2023-03-26T13:58:42.021Z,16.16
2023-03-26T14:01:51.394Z,16.07
2023-03-26T14:04:58.625Z,16.13
2023-03-26T14:08:14.612Z,16.28
2023-03-26T14:11:27.865Z,16.42
2023-03-26T14:14:55.645Z,16.68
2023-03-26T14:18:32.188Z,16.78
2023-03-26T14:21:58.965Z,16.71
2023-03-26T14:25:19.914Z,16.67
2023-03-26T14:28:38.429Z,16.84
2023-03-26T14:31:59.585Z,16.93
2023-03-26T14:35:10.635Z,17.02
2023-03-26T14:38:56.686Z,17.26
2023-03-26T14:42:19.362Z,17.20
2023-03-26T14:45:48.444Z,17.32
2023-03-26T14:49:22.100Z,17.29
2023-03-26T14:52:31.025Z,17.25
2023-03-26T14:55:42.232Z,17.31
2023-03-26T14:59:18.868Z,16.99
2023-03-26T15:03:07.901Z,17.06
2023-03-26T15:06:25.498Z,17.21
2023-03-26T15:09:40.297Z,17.40
2023-03-26T15:13:11.052Z,17.52
2023-03-26T15:16:50.732Z,17.33
2023-03-26T15:19:53.170Z,17.02
2023-03-26T15:23:32.403Z,16.89
2023-03-26T15:27:29.084Z,17.03
2023-03-26T15:30:49.793Z,16.90
2023-03-26T15:34:43.657Z,16.97
2023-03-26T15:38:09.063Z,17.05
2023-03-26T15:41:25.439Z,17.11
2023-03-26T15:44:54.688Z,17.00
2023-03-26T15:48:12.587Z,17.04
2023-03-26T15:51:46.196Z,17.03
2023-03-26T15:54:55.954Z,17.03
2023-03-26T15:58:26.096Z,16.91
2023-03-26T16:01:50.422Z,16.88
2023-03-26T16:04:55.818Z,16.86
2023-03-26T16:08:29.047Z,16.84
2023-03-26T16:11:55.003Z,16.67
2023-03-26T16:15:07.269Z,16.55
2023-03-26T16:18:15.660Z,16.17
2023-03-26T16:21:36.395Z,15.91
2023-03-26T16:24:49.362Z,15.78
2023-03-26T16:28:09.989Z,15.67
2023-03-26T16:31:36.387Z,15.58
2023-03-26T16:34:45.392Z,15.45
2023-03-26T16:37:52.099Z,15.32
2023-03-26T16:41:15.808Z,15.21
2023-03-26T16:44:46.607Z,15.13
2023-03-26T16:48:17.499Z,15.01
2023-03-26T16:51:27.360Z,14.90
2023-03-26T16:54:54.120Z,14.83
2023-03-26T16:58:21.922Z,14.72
2023-03-26T17:01:33.130Z,14.62
2023-03-26T17:04:36.905Z,14.56
2023-03-26T17:07:47.058Z,14.56
2023-03-26T17:11:07.106Z,14.46
2023-03-26T17:14:28.266Z,14.36
2023-03-26T17:17:55.535Z,14.31
2023-03-26T17:21:00.968Z,14.24
2023-03-26T17:24:15.524Z,14.15
2023-03-26T17:27:54.487Z,14.09
2023-03-26T17:31:10.873Z,14.02
2023-03-26T17:34:37.885Z,13.98
2023-03-26T17:37:47.082Z,13.97
2023-03-26T17:40:51.628Z,13.90
2023-03-26T17:43:56.929Z,13.88
2023-03-26T17:47:01.411Z,13.85
2023-03-26T17:50:30.621Z,13.82
2023-03-26T17:53:36.588Z,13.77
2023-03-26T17:56:40.904Z,13.75
2023-03-26T17:59:45.050Z,13.79
2023-03-26T18:02:55.275Z,13.72
2023-03-26T18:06:13.967Z,13.67
2023-03-26T18:09:48.130Z,13.60
2023-03-26T18:13:02.849Z,13.58
2023-03-26T18:16:12.206Z,13.52
2023-03-26T18:19:21.961Z,13.54
2023-03-26T18:22:28.353Z,13.53
2023-03-26T18:25:33.974Z,13.55
2023-03-26T18:28:42.182Z,13.50
2023-03-26T18:31:46.516Z,13.50
2023-03-26T18:34:54.239Z,13.46
2023-03-26T18:38:00.921Z,13.47
2023-03-26T18:41:05.903Z,13.48
2023-03-26T18:44:15.588Z,13.49
2023-03-26T18:47:18.677Z,13.45
2023-03-26T18:50:27.275Z,13.38
2023-03-26T18:53:35.656Z,13.32
2023-03-26T18:56:43.386Z,13.26
2023-03-26T18:59:46.195Z,13.24
2023-03-26T19:02:54.274Z,13.19
2023-03-26T19:05:58.224Z,13.18
2023-03-26T19:09:01.297Z,13.18
2023-03-26T19:12:14.332Z,13.20
2023-03-26T19:15:18.166Z,13.17
2023-03-26T19:18:25.413Z,13.10
2023-03-26T19:21:28.203Z,13.06
2023-03-26T19:24:31.172Z,13.00
2023-03-26T19:27:34.077Z,12.94
2023-03-26T19:30:40.690Z,12.91
2023-03-26T19:33:44.320Z,12.84
2023-03-26T19:37:00.928Z,12.82
2023-03-26T19:40:18.848Z,12.73
2023-03-26T19:43:21.363Z,12.69
2023-03-26T19:46:25.612Z,12.68
2023-03-26T19:49:33.407Z,12.67
2023-03-26T19:52:39.349Z,12.67
2023-03-26T19:55:42.231Z,12.67
2023-03-26T19:58:44.930Z,12.62
2023-03-26T20:01:47.150Z,12.59
2023-03-26T20:04:50.020Z,12.56
2023-03-26T20:07:56.065Z,12.55
2023-03-26T20:10:59.201Z,12.50
2023-03-26T20:14:02.473Z,12.53
2023-03-26T20:17:12.304Z,12.49
2023-03-26T20:20:15.713Z,12.47
2023-03-26T20:23:18.873Z,12.48
2023-03-26T20:26:23.069Z,12.47
2023-03-26T20:29:25.522Z,12.39
2023-03-26T20:32:27.694Z,12.36
2023-03-26T20:35:36.231Z,12.26
2023-03-26T20:38:40.148Z,12.32
2023-03-26T20:41:48.242Z,12.33
2023-03-26T20:44:50.405Z,12.26
2023-03-26T20:47:55.785Z,12.24
2023-03-26T20:50:57.938Z,12.28
2023-03-26T20:54:00.616Z,12.28
2023-03-26T20:57:02.956Z,12.26
2023-03-26T21:00:16.088Z,12.25
2023-03-26T21:03:18.850Z,12.24
2023-03-26T21:06:21.275Z,12.27
2023-03-26T21:09:25.049Z,12.24
2023-03-26T21:12:31.704Z,12.27
2023-03-26T21:15:34.898Z,12.25
2023-03-26T21:18:37.801Z,12.28
2023-03-26T21:22:05.026Z,12.20
2023-03-26T21:25:17.336Z,12.23
2023-03-26T21:28:32.211Z,12.19
2023-03-26T21:31:42.425Z,12.17
2023-03-26T21:34:55.758Z,12.11
2023-03-26T21:38:03.139Z,12.10
2023-03-26T21:41:05.644Z,12.15
2023-03-26T21:44:08.642Z,12.11
2023-03-26T21:47:11.231Z,12.00
2023-03-26T21:50:17.624Z,12.01
2023-03-26T21:53:20.043Z,11.97
2023-03-26T21:56:50.064Z,11.77
2023-03-26T22:00:19.332Z,11.53
2023-03-26T22:03:33.000Z,11.38
2023-03-26T22:06:42.883Z,11.33
2023-03-26T22:09:45.850Z,11.25
2023-03-26T22:12:48.223Z,11.25
2023-03-26T22:15:50.942Z,11.18
2023-03-26T22:18:53.782Z,11.11
2023-03-26T22:21:56.272Z,11.05
2023-03-26T22:24:58.377Z,10.91
2023-03-26T22:28:00.809Z,10.87
2023-03-26T22:31:08.524Z,10.77
2023-03-26T22:34:11.687Z,10.69
2023-03-26T22:37:14.158Z,10.61
2023-03-26T22:40:17.801Z,10.47
2023-03-26T22:43:19.930Z,10.34
2023-03-26T22:46:22.806Z,10.22
2023-03-26T22:49:30.115Z,10.18
2023-03-26T22:52:34.509Z,10.13
2023-03-26T22:55:37.416Z,10.07
2023-03-26T22:58:40.255Z,10.01
2023-03-26T23:01:44.203Z,9.97
2023-03-26T23:04:48.501Z,9.98
2023-03-26T23:07:51.898Z,9.89
2023-03-26T23:10:54.554Z,9.76
2023-03-26T23:13:56.961Z,9.76
2023-03-26T23:16:59.711Z,9.73
2023-03-26T23:20:06.070Z,9.62
2023-03-26T23:23:08.768Z,9.63
2023-03-26T23:26:11.218Z,9.57
2023-03-26T23:29:13.846Z,9.64
2023-03-26T23:32:24.503Z,9.61
2023-03-26T23:35:27.591Z,9.47
2023-03-26T23:38:44.092Z,9.51
2023-03-26T23:41:47.032Z,9.52
2023-03-26T23:44:49.288Z,9.44
2023-03-26T23:47:52.132Z,9.45
2023-03-26T23:51:03.824Z,9.40
2023-03-26T23:54:08.562Z,9.39
2023-03-26T23:57:10.759Z,9.38
